Dromore, United Kingdom
Current Conditions -  °F | °C
As of 9:50 AM on Friday 31 Oct 2014 (Local Time) from EGAA Reporting Station
Few Clouds Few Clouds  
Wind Chill: 16°   Ceiling: Unl
Heat Index: 16°   Visibility: 6mi
Dew Point: 13°   Wind: 14mph
Humidity: 82%   Direction: 170°S
Pressure: 29.65"   Gusts: NA
Location:  54.41°N, 6.15°W
Report Text: EGAA 310950Z 17012KT 140V200 9999 FEW017 16/13 Q1004
Loading
Personal Weather Stations






























Interactive Weather Map
Tropical Storm Tracking
New forecast layout! Learn more

10-Day Weather Forecast

Advertisements
Track Severe Weather on mobile